Aérodrome :
LOGIN :

S'inscrire | Disclaimer

   EN    FR    IT 

 










Légende :    VFR   VFR Marginal   IFR   IFR Intensif   IFR Très Intensif
Visi : 
Plafond : 
>= 8 km
>= 3000ft
5 à 8 km
1000 à 3000 ft
1500m à 5 km
500 à 1000 ft
800 à 1500m
200 à 500 ft
< 800m
< 200 ft
Symboles :   Orages  Brouillard  Fortes neiges  Fortes précipitations  Vent > 20 kt
SIGMETs :   Divers  Orages  Givrage  Turbulence  Onde Orograph.  Cendres Volcan.







- Altitude de l'aérodrome : 42 ft
- Code IATA : CAL
- Voir les cartes d'approche


EGEC - Campbeltown

DERNIER METAR :
  • 171050Z 20014KT 7000 -RA FEW024 BKN031 14/12 Q1010

METARs EXPIRÉS :
  • 171020Z 18012KT 9999 -RA FEW025 BKN032 13/12 Q1011
  • 170950Z 19014KT 9000 RA FEW011 BKN042 13/12 Q1011
  • 170920Z 20015KT 9999 RA FEW011 BKN042 13/11 Q1011
  • 170850Z 20017KT 9999 RA FEW011 BKN041 13/11 Q1011
  • 170820Z 19013KT 9999 RA FEW011 SCT041 BKN048 13/11 Q1011

TAF TAF EGEC
Valide du 17 à 09h jusqu'au 17 à 18h UTC


170802Z 1709/1718 20014KT 9999 SCT010 BKN030
TEMPO 1709/1717 21017G27KT -RA FEW006 BKN010
PROB30
TEMPO 1709/1716 4000 RA BKN008
BECMG 1714/1717 27016G26KT
Pas de NOTAMs connus pour ce terrain.



MET'MAP, la Météo Aéronautique d'un coup d'oeil ! - Copyright ORBIFLY Décembre 2007 - Disclaimer

ORBIFLY MET'MAP TEAM :

Programmation & Développement : Alexandra Zaïnal
Conception & Développement : Baudouin d'Aumeries
Co-Programmation & Développement : Marc-Olivier Méhu
Soutien technique & logistique : Manuel Goepfert

Contact : metmap@orbifly.com




SOURCES & CREDITS :

   NOAA